createdAt,value
2018-12-12T05:46:25.268Z,0.00
2018-12-12T05:48:53.914Z,0.00
2018-12-12T05:51:22.582Z,0.00
2018-12-12T05:53:51.058Z,0.00
2018-12-12T05:56:19.633Z,0.00
2018-12-12T05:58:48.338Z,0.00
2018-12-12T06:01:17.053Z,0.00
2018-12-12T06:03:46.008Z,0.00
2018-12-12T06:06:14.722Z,0.00
2018-12-12T06:08:43.413Z,0.00
2018-12-12T06:11:12.365Z,0.10
2018-12-12T06:13:41.094Z,0.00
2018-12-12T06:16:09.564Z,0.00
2018-12-12T06:18:38.441Z,0.10
2018-12-12T06:21:07.133Z,0.10
2018-12-12T06:23:36.768Z,0.10
2018-12-12T06:26:05.739Z,0.10
2018-12-12T06:28:34.720Z,0.10
2018-12-12T06:31:03.758Z,0.10
2018-12-12T06:33:32.158Z,0.10
2018-12-12T06:36:01.101Z,0.10
2018-12-12T06:38:29.471Z,0.10
2018-12-12T06:40:58.686Z,0.10
2018-12-12T06:43:27.263Z,0.10
2018-12-12T06:45:56.137Z,0.10
2018-12-12T06:48:24.563Z,0.10
2018-12-12T06:50:53.730Z,0.10
2018-12-12T06:53:22.531Z,0.10
2018-12-12T06:55:51.339Z,0.10
2018-12-12T06:58:19.965Z,0.10
2018-12-12T07:00:49.316Z,0.10
2018-12-12T07:03:17.911Z,0.10
2018-12-12T07:05:46.570Z,0.10
2018-12-12T07:08:15.278Z,0.10
2018-12-12T07:10:44.803Z,0.10
2018-12-12T07:13:13.533Z,0.10
2018-12-12T07:15:42.266Z,0.20
2018-12-12T07:18:11.238Z,0.20
2018-12-12T07:20:40.014Z,0.20
2018-12-12T07:23:08.710Z,0.20
2018-12-12T07:25:37.169Z,0.20
2018-12-12T07:28:05.653Z,0.20
2018-12-12T07:30:34.409Z,0.30
2018-12-12T07:33:03.534Z,0.30
2018-12-12T07:35:32.165Z,0.30
2018-12-12T07:38:01.312Z,0.30
2018-12-12T07:40:29.868Z,0.30
2018-12-12T07:42:58.676Z,0.30
2018-12-12T07:45:27.754Z,0.30
2018-12-12T07:48:01.421Z,0.30
2018-12-12T07:50:27.179Z,0.30
2018-12-12T07:52:55.576Z,0.30
2018-12-12T07:55:23.957Z,0.30
2018-12-12T07:57:52.975Z,0.40
2018-12-12T08:00:21.704Z,0.40
2018-12-12T08:02:50.883Z,0.40
2018-12-12T08:05:19.631Z,0.40
2018-12-12T08:07:48.355Z,0.50
2018-12-12T08:10:18.059Z,0.40
2018-12-12T08:12:47.160Z,0.40
2018-12-12T08:15:15.610Z,0.40
2018-12-12T08:17:44.054Z,0.50
2018-12-12T08:20:13.569Z,0.50
2018-12-12T08:22:42.848Z,0.50
2018-12-12T08:25:13.066Z,0.60
2018-12-12T08:27:41.438Z,0.60
2018-12-12T08:30:09.953Z,0.70
2018-12-12T08:32:38.530Z,0.60
2018-12-12T08:35:07.228Z,0.70
2018-12-12T08:37:35.950Z,0.70
2018-12-12T08:40:04.969Z,0.80
2018-12-12T08:42:36.954Z,0.80
2018-12-12T08:45:06.128Z,0.90
2018-12-12T08:47:34.950Z,0.90
2018-12-12T08:50:04.052Z,0.90
2018-12-12T08:52:32.676Z,1.00
2018-12-12T08:55:01.519Z,0.90
2018-12-12T08:57:30.292Z,1.00
2018-12-12T08:59:59.167Z,1.00
2018-12-12T09:02:27.885Z,1.00
2018-12-12T09:04:56.948Z,1.00
2018-12-12T09:07:25.368Z,1.00
2018-12-12T09:09:54.095Z,1.00
2018-12-12T09:12:23.027Z,1.00
2018-12-12T09:14:51.852Z,1.00
2018-12-12T09:17:20.671Z,0.90
2018-12-12T09:19:49.694Z,1.00
2018-12-12T09:22:18.092Z,1.00
2018-12-12T09:24:47.313Z,1.00
2018-12-12T09:27:16.155Z,1.00
2018-12-12T09:29:44.826Z,1.00
2018-12-12T09:32:13.873Z,1.00
2018-12-12T09:34:43.044Z,1.00
2018-12-12T09:37:11.766Z,1.10
2018-12-12T09:39:40.468Z,1.00
2018-12-12T09:42:09.125Z,1.10
2018-12-12T09:44:37.848Z,1.00
2018-12-12T09:47:06.471Z,1.00
2018-12-12T09:49:35.122Z,1.10
2018-12-12T09:52:04.074Z,1.20
2018-12-12T09:54:32.820Z,1.30
2018-12-12T09:57:01.222Z,1.30
2018-12-12T09:59:29.813Z,1.40
2018-12-12T10:01:58.275Z,1.30
2018-12-12T10:04:27.272Z,1.30
2018-12-12T10:06:55.962Z,1.30
2018-12-12T10:09:25.290Z,1.30
2018-12-12T10:11:53.757Z,1.30
2018-12-12T10:14:22.351Z,1.30
2018-12-12T10:16:51.283Z,1.40
2018-12-12T10:19:20.343Z,1.30
2018-12-12T10:21:49.318Z,1.40
2018-12-12T10:24:18.915Z,1.40
2018-12-12T10:26:47.666Z,1.50
2018-12-12T10:29:16.403Z,1.60
2018-12-12T10:31:44.994Z,1.60
2018-12-12T10:34:13.936Z,1.60
2018-12-12T10:36:42.372Z,1.60
2018-12-12T10:39:11.536Z,1.60
2018-12-12T10:41:40.627Z,1.60
2018-12-12T10:44:09.609Z,1.60
2018-12-12T10:46:38.636Z,1.60
2018-12-12T10:49:07.375Z,1.50
2018-12-12T10:51:36.037Z,1.50
2018-12-12T10:54:05.033Z,1.40
2018-12-12T10:56:33.701Z,1.30
2018-12-12T10:59:02.108Z,1.30
2018-12-12T11:01:35.290Z,1.30
2018-12-12T11:04:04.186Z,1.30
2018-12-12T11:06:32.879Z,1.30
2018-12-12T11:09:02.016Z,1.20
2018-12-12T11:11:31.434Z,1.30
2018-12-12T11:14:00.122Z,1.30
2018-12-12T11:16:29.017Z,1.30
2018-12-12T11:18:58.159Z,1.40
2018-12-12T11:21:26.893Z,1.30
2018-12-12T11:23:55.448Z,1.40
2018-12-12T11:26:24.366Z,1.40
2018-12-12T11:28:53.337Z,1.40
2018-12-12T11:31:22.643Z,1.40
2018-12-12T11:33:51.617Z,1.40
2018-12-12T11:36:20.861Z,1.40
2018-12-12T11:38:49.639Z,1.40
2018-12-12T11:41:18.274Z,1.40
2018-12-12T11:43:47.016Z,1.30
2018-12-12T11:46:16.317Z,1.30
2018-12-12T11:48:44.955Z,1.30
2018-12-12T11:51:13.447Z,1.30
2018-12-12T11:53:42.217Z,1.40
2018-12-12T11:56:11.387Z,1.40
2018-12-12T11:58:39.777Z,1.30
2018-12-12T12:01:08.679Z,1.40
2018-12-12T12:03:37.702Z,1.40
2018-12-12T12:06:06.185Z,1.30
2018-12-12T12:08:34.600Z,1.30
2018-12-12T12:11:03.017Z,1.30
2018-12-12T12:13:31.738Z,1.40
2018-12-12T12:16:00.128Z,1.40
2018-12-12T12:18:29.168Z,1.40
2018-12-12T12:20:58.008Z,1.30
2018-12-12T12:23:26.601Z,1.30
2018-12-12T12:25:56.430Z,1.30
2018-12-12T12:28:24.880Z,1.30
2018-12-12T12:30:53.308Z,1.30
2018-12-12T12:33:21.925Z,1.30
2018-12-12T12:35:50.594Z,1.30
2018-12-12T12:38:19.987Z,1.20
2018-12-12T12:40:48.470Z,1.20
2018-12-12T12:43:17.341Z,1.20
2018-12-12T12:45:46.114Z,1.20
2018-12-12T12:48:14.951Z,1.30
2018-12-12T12:50:44.156Z,1.30
2018-12-12T12:53:13.499Z,1.40
2018-12-12T12:55:41.888Z,1.50
2018-12-12T12:58:10.410Z,1.50
2018-12-12T13:00:39.415Z,1.50
2018-12-12T13:03:08.967Z,1.60
2018-12-12T13:05:37.625Z,1.70
2018-12-12T13:08:06.566Z,1.70
2018-12-12T13:10:35.833Z,1.70
2018-12-12T13:13:04.643Z,1.80
2018-12-12T13:15:34.873Z,1.70
2018-12-12T13:18:03.700Z,1.70
2018-12-12T13:20:32.215Z,1.70
2018-12-12T13:23:00.694Z,1.80
2018-12-12T13:25:30.458Z,1.80
2018-12-12T13:27:59.764Z,1.90
2018-12-12T13:30:28.548Z,1.90
2018-12-12T13:32:57.236Z,1.90
2018-12-12T13:35:26.017Z,1.90
2018-12-12T13:37:54.804Z,1.90
2018-12-12T13:40:23.536Z,2.00
2018-12-12T13:42:51.983Z,1.90
2018-12-12T13:45:20.873Z,1.90
2018-12-12T13:47:49.662Z,1.90
2018-12-12T13:50:18.397Z,1.80
2018-12-12T13:52:47.278Z,1.80
2018-12-12T13:55:16.187Z,1.80
2018-12-12T13:57:44.605Z,1.80
2018-12-12T14:00:13.450Z,1.80
2018-12-12T14:02:42.249Z,1.80
2018-12-12T14:05:10.755Z,1.80
2018-12-12T14:07:39.345Z,1.80
2018-12-12T14:10:08.371Z,1.80
2018-12-12T14:12:37.345Z,1.80
2018-12-12T14:15:06.522Z,1.80
2018-12-12T14:17:35.011Z,1.80
2018-12-12T14:20:03.536Z,1.80
2018-12-12T14:22:32.364Z,1.80
2018-12-12T14:25:01.676Z,1.80
2018-12-12T14:27:30.283Z,1.90
2018-12-12T14:29:59.114Z,1.80
2018-12-12T14:32:27.718Z,1.80
2018-12-12T14:34:57.509Z,1.90
2018-12-12T14:37:26.414Z,1.90
2018-12-12T14:39:55.381Z,1.80
2018-12-12T14:42:23.986Z,1.80
2018-12-12T14:44:52.543Z,1.80
2018-12-12T14:47:20.900Z,1.80
2018-12-12T14:49:49.754Z,1.80
2018-12-12T14:52:18.511Z,1.80
2018-12-12T14:54:47.136Z,1.80
2018-12-12T14:57:16.943Z,1.80
2018-12-12T14:59:45.664Z,1.80
2018-12-12T15:02:14.914Z,1.80
2018-12-12T15:04:43.758Z,1.80
2018-12-12T15:07:12.887Z,1.80
2018-12-12T15:09:41.433Z,1.80
2018-12-12T15:12:10.168Z,1.80
2018-12-12T15:14:38.773Z,1.80
2018-12-12T15:17:07.178Z,1.80
2018-12-12T15:19:36.511Z,1.80
2018-12-12T15:22:05.198Z,1.70
2018-12-12T15:24:35.522Z,1.70
2018-12-12T15:27:04.839Z,1.70
2018-12-12T15:29:33.401Z,1.70
2018-12-12T15:32:01.835Z,1.70
2018-12-12T15:34:30.723Z,1.70
2018-12-12T15:36:59.375Z,1.70
2018-12-12T15:39:28.279Z,1.70
2018-12-12T15:41:56.804Z,1.70
2018-12-12T15:44:26.519Z,1.70
2018-12-12T15:46:55.123Z,1.60
2018-12-12T15:49:24.067Z,1.70
2018-12-12T15:51:52.743Z,1.60
2018-12-12T15:54:21.263Z,1.50
2018-12-12T15:56:49.875Z,1.40
2018-12-12T15:59:18.817Z,1.30
2018-12-12T16:01:48.093Z,1.30
2018-12-12T16:04:17.491Z,1.20
2018-12-12T16:06:46.739Z,1.20
2018-12-12T16:09:15.166Z,1.10
2018-12-12T16:11:43.857Z,1.10
2018-12-12T16:14:15.428Z,1.00
2018-12-12T16:16:44.369Z,1.00
2018-12-12T16:19:13.510Z,0.90
2018-12-12T16:21:43.236Z,1.00
2018-12-12T16:24:11.806Z,0.90
2018-12-12T16:26:40.845Z,0.80
2018-12-12T16:29:09.800Z,0.80
2018-12-12T16:31:38.548Z,0.80
2018-12-12T16:34:07.517Z,0.70
2018-12-12T16:36:36.534Z,0.70
2018-12-12T16:39:07.848Z,0.70
2018-12-12T16:41:36.848Z,0.70
2018-12-12T16:44:05.612Z,0.70
2018-12-12T16:46:34.321Z,0.70
2018-12-12T16:49:02.785Z,0.70
2018-12-12T16:51:31.876Z,0.70
2018-12-12T16:54:00.340Z,0.70
2018-12-12T16:56:28.814Z,0.80
2018-12-12T16:58:57.449Z,0.80
2018-12-12T17:01:26.443Z,0.80
2018-12-12T17:03:55.496Z,0.80
2018-12-12T17:06:24.287Z,0.80
2018-12-12T17:08:52.869Z,0.80
2018-12-12T17:11:21.712Z,0.80
2018-12-12T17:13:50.322Z,0.80
2018-12-12T17:16:19.123Z,0.80
2018-12-12T17:18:48.714Z,0.80
2018-12-12T17:21:17.304Z,0.90
2018-12-12T17:23:46.332Z,0.80
2018-12-12T17:26:14.952Z,0.90
2018-12-12T17:28:43.368Z,0.80
2018-12-12T17:31:11.914Z,0.90
2018-12-12T17:33:40.297Z,0.80
2018-12-12T17:36:09.223Z,0.90
2018-12-12T17:38:38.201Z,0.90
2018-12-12T17:41:07.561Z,0.90
2018-12-12T17:43:36.671Z,0.90
2018-12-12T17:46:05.548Z,0.90
2018-12-12T17:48:33.995Z,0.90
2018-12-12T17:51:02.579Z,0.90
2018-12-12T17:53:31.025Z,0.90
2018-12-12T17:55:59.443Z,0.80
2018-12-12T17:58:28.037Z,0.80
2018-12-12T18:00:56.809Z,0.80
2018-12-12T18:03:25.658Z,0.80
2018-12-12T18:05:54.159Z,0.70
2018-12-12T18:08:23.068Z,0.70
2018-12-12T18:10:51.484Z,0.70
2018-12-12T18:13:20.425Z,0.70
2018-12-12T18:15:49.273Z,0.70
2018-12-12T18:18:17.949Z,0.70
2018-12-12T18:20:46.350Z,0.70
2018-12-12T18:23:17.920Z,0.60
2018-12-12T18:25:46.911Z,0.60
2018-12-12T18:28:15.616Z,0.60
2018-12-12T18:30:44.426Z,0.60
2018-12-12T18:33:12.923Z,0.60
2018-12-12T18:35:41.722Z,0.50
2018-12-12T18:38:11.062Z,0.50
2018-12-12T18:40:39.685Z,0.50
2018-12-12T18:43:08.655Z,0.50
2018-12-12T18:45:37.107Z,0.50
2018-12-12T18:48:06.374Z,0.40
2018-12-12T18:50:35.011Z,0.40
2018-12-12T18:53:04.697Z,0.30
2018-12-12T18:55:33.167Z,0.30
2018-12-12T18:58:01.579Z,0.30
2018-12-12T19:00:30.148Z,0.20
2018-12-12T19:02:59.174Z,0.20
2018-12-12T19:05:28.403Z,0.20
2018-12-12T19:07:57.119Z,0.10
2018-12-12T19:10:26.026Z,0.20
2018-12-12T19:12:55.175Z,0.20
2018-12-12T19:15:24.043Z,0.20
2018-12-12T19:17:52.677Z,0.10
2018-12-12T19:20:21.411Z,0.10
2018-12-12T19:22:49.910Z,0.00
2018-12-12T19:25:18.794Z,0.10
2018-12-12T19:27:48.379Z,0.10
2018-12-12T19:30:16.858Z,0.10
2018-12-12T19:32:45.674Z,0.00
2018-12-12T19:35:15.021Z,0.10
2018-12-12T19:37:44.037Z,0.10
2018-12-12T19:40:12.922Z,0.10
2018-12-12T19:42:42.008Z,0.20
2018-12-12T19:45:11.141Z,0.20
2018-12-12T19:47:39.612Z,0.20
2018-12-12T19:50:08.730Z,0.20
2018-12-12T19:52:37.788Z,0.20
2018-12-12T19:55:06.375Z,0.20
2018-12-12T19:57:35.098Z,0.20
2018-12-12T20:00:04.449Z,0.20
2018-12-12T20:02:33.380Z,0.10
2018-12-12T20:05:02.343Z,0.10
2018-12-12T20:07:31.319Z,0.10
2018-12-12T20:09:59.789Z,0.10
2018-12-12T20:12:28.681Z,0.10
2018-12-12T20:14:57.282Z,0.10
2018-12-12T20:17:26.102Z,0.00
2018-12-12T20:19:54.547Z,0.00
2018-12-12T20:22:23.138Z,0.00
2018-12-12T20:24:51.810Z,-0.10
